createdAt,value
2018-03-07T00:01:05.561Z,95965.21
2018-03-07T00:03:34.387Z,95968.07
2018-03-07T00:06:02.717Z,95971.42
2018-03-07T00:08:31.052Z,95967.07
2018-03-07T00:11:00.184Z,95974.13
2018-03-07T00:13:28.519Z,95969.09
2018-03-07T00:15:56.831Z,95969.17
2018-03-07T00:18:25.476Z,95974.11
2018-03-07T00:20:53.784Z,95971.89
2018-03-07T00:23:22.259Z,95977.27
2018-03-07T00:25:50.572Z,95979.39
2018-03-07T00:28:18.900Z,95979.95
2018-03-07T00:30:48.015Z,95987.20
2018-03-07T00:33:16.336Z,95990.50
2018-03-07T00:35:44.724Z,95986.85
2018-03-07T00:38:13.044Z,95987.78
2018-03-07T00:40:42.124Z,95986.27
2018-03-07T00:43:11.240Z,95986.28
2018-03-07T00:45:39.560Z,95981.30
2018-03-07T00:48:07.916Z,95982.68
2018-03-07T00:50:36.277Z,95985.42
2018-03-07T00:53:04.601Z,95981.83
2018-03-07T00:55:32.976Z,95980.00
2018-03-07T00:58:01.295Z,95981.75
2018-03-07T01:00:30.368Z,95986.97
2018-03-07T01:02:58.722Z,95985.11
2018-03-07T01:05:27.040Z,95988.67
2018-03-07T01:07:55.386Z,95982.28
2018-03-07T01:10:23.767Z,95981.70
2018-03-07T01:12:52.079Z,95979.25
2018-03-07T01:15:20.436Z,95978.09
2018-03-07T01:17:48.776Z,95982.84
2018-03-07T01:20:17.092Z,95980.54
2018-03-07T01:22:45.495Z,95985.70
2018-03-07T01:25:14.615Z,95979.41
2018-03-07T01:27:42.996Z,95976.31
2018-03-07T01:30:11.384Z,95977.45
2018-03-07T01:32:39.691Z,95973.67
2018-03-07T01:35:08.036Z,95984.84
2018-03-07T01:37:36.391Z,95984.03
2018-03-07T01:40:05.467Z,95978.58
2018-03-07T01:42:33.804Z,95981.34
2018-03-07T01:45:02.173Z,95970.75
2018-03-07T01:47:30.482Z,95973.52
2018-03-07T01:49:58.797Z,95977.77
2018-03-07T01:52:27.932Z,95975.88
2018-03-07T01:54:56.248Z,95975.55
2018-03-07T01:57:24.567Z,95973.74
2018-03-07T01:59:52.935Z,95971.48
2018-03-07T02:02:21.252Z,95966.88
2018-03-07T02:05:02.287Z,95973.84
2018-03-07T02:07:30.627Z,95975.97
2018-03-07T02:09:58.941Z,95970.83
2018-03-07T02:12:27.328Z,95979.78
2018-03-07T02:14:55.645Z,95977.52
2018-03-07T02:17:23.735Z,95979.67
2018-03-07T02:19:52.092Z,95975.95
2018-03-07T02:22:20.404Z,95974.52
2018-03-07T02:24:48.726Z,95980.50
2018-03-07T02:27:17.634Z,95976.76
2018-03-07T02:29:45.979Z,95973.72
2018-03-07T02:32:14.301Z,95974.03
2018-03-07T02:34:42.831Z,95977.84
2018-03-07T02:37:11.161Z,95980.86
2018-03-07T02:39:40.893Z,95979.39
2018-03-07T02:42:09.296Z,95980.59
2018-03-07T02:44:37.616Z,95985.90
2018-03-07T02:47:05.923Z,95990.14
2018-03-07T02:49:34.291Z,95986.06
2018-03-07T02:52:02.667Z,95992.66
2018-03-07T02:54:31.952Z,95991.06
2018-03-07T02:57:02.077Z,95991.01
2018-03-07T02:59:30.412Z,95989.29
2018-03-07T03:01:58.960Z,95998.64
2018-03-07T03:04:27.682Z,95998.87
2018-03-07T03:06:56.038Z,96001.29
2018-03-07T03:09:24.379Z,96001.62
2018-03-07T03:11:52.971Z,95997.86
2018-03-07T03:14:21.299Z,96008.22
2018-03-07T03:16:54.889Z,96003.62
2018-03-07T03:19:24.005Z,96011.36
2018-03-07T03:21:53.028Z,96008.24
2018-03-07T03:24:21.383Z,96009.05
2018-03-07T03:26:49.823Z,96009.42
2018-03-07T03:29:18.183Z,96010.09
2018-03-07T03:31:46.535Z,96015.03
2018-03-07T03:34:14.850Z,96018.79
2018-03-07T03:36:43.988Z,96019.56
2018-03-07T03:39:12.304Z,96021.32
2018-03-07T03:41:40.768Z,96027.08
2018-03-07T03:44:09.120Z,96019.06
2018-03-07T03:46:37.427Z,96020.55
2018-03-07T03:49:05.752Z,96019.66
2018-03-07T03:51:34.366Z,96026.08
2018-03-07T03:54:02.673Z,96026.62
2018-03-07T03:56:31.017Z,96035.42
2018-03-07T03:58:59.335Z,96028.25
2018-03-07T04:01:27.666Z,96022.13
2018-03-07T04:03:56.607Z,96024.30
2018-03-07T04:06:24.929Z,96021.45
2018-03-07T04:08:53.263Z,96018.73
2018-03-07T04:11:23.148Z,96022.28
2018-03-07T04:13:51.464Z,96030.19
2018-03-07T04:16:19.795Z,96034.36
2018-03-07T04:18:48.600Z,96043.72
2018-03-07T04:21:16.920Z,96041.30
2018-03-07T04:23:46.302Z,96049.03
2018-03-07T04:26:14.691Z,96047.80
2018-03-07T04:28:43.008Z,96049.75
2018-03-07T04:31:11.320Z,96046.28
2018-03-07T04:33:40.000Z,96043.87
2018-03-07T04:36:08.312Z,96048.92
2018-03-07T04:38:36.631Z,96046.98
2018-03-07T04:41:05.771Z,96047.13
2018-03-07T04:43:34.082Z,96046.27
2018-03-07T04:46:03.419Z,96043.79
2018-03-07T04:48:31.803Z,96050.02
2018-03-07T04:51:00.132Z,96055.36
2018-03-07T04:53:28.527Z,96062.76
2018-03-07T04:55:56.851Z,96063.28
2018-03-07T04:58:25.776Z,96066.77
2018-03-07T05:00:54.149Z,96070.02
2018-03-07T05:03:22.908Z,96072.55
2018-03-07T05:05:51.236Z,96071.27
2018-03-07T05:08:19.596Z,96074.77
2018-03-07T05:10:48.622Z,96071.44
2018-03-07T05:13:16.946Z,96070.76
2018-03-07T05:15:45.311Z,96069.98
2018-03-07T05:18:13.637Z,96073.97
2018-03-07T05:20:42.532Z,96072.25
2018-03-07T05:23:10.891Z,96070.34
2018-03-07T05:25:40.024Z,96073.34
2018-03-07T05:28:08.356Z,96073.36
2018-03-07T05:30:37.476Z,96075.75
2018-03-07T05:33:05.880Z,96080.00
2018-03-07T05:35:34.595Z,96078.61
2018-03-07T05:38:02.964Z,96083.66
2018-03-07T05:40:31.280Z,96079.57
2018-03-07T05:42:59.888Z,96086.41
2018-03-07T05:45:28.247Z,96091.80
2018-03-07T05:47:56.556Z,96094.01
2018-03-07T05:50:25.589Z,96097.58
2018-03-07T05:52:53.911Z,96096.33
2018-03-07T05:55:22.796Z,96100.11
2018-03-07T05:57:51.148Z,96098.89
2018-03-07T06:00:20.467Z,96102.39
2018-03-07T06:02:48.783Z,96106.61
2018-03-07T06:05:17.111Z,96105.96
2018-03-07T06:07:45.527Z,96113.98
2018-03-07T06:10:14.516Z,96117.80
2018-03-07T06:12:43.590Z,96115.07
2018-03-07T06:15:12.096Z,96118.21
2018-03-07T06:17:41.511Z,96123.97
2018-03-07T06:20:09.848Z,96125.30
2018-03-07T06:22:38.344Z,96124.79
2018-03-07T06:25:07.336Z,96127.20
2018-03-07T06:27:35.964Z,96141.05
2018-03-07T06:30:05.037Z,96134.90
2018-03-07T06:32:34.182Z,96138.98
2018-03-07T06:35:02.524Z,96142.89
2018-03-07T06:37:30.869Z,96154.41
2018-03-07T06:39:59.219Z,96153.94
2018-03-07T06:42:27.528Z,96153.85
2018-03-07T06:47:30.319Z,96160.91
2018-03-07T06:49:58.623Z,96167.48
2018-03-07T06:52:27.700Z,96165.42
2018-03-07T06:54:56.912Z,96172.92
2018-03-07T06:57:25.215Z,96174.53
2018-03-07T06:59:53.531Z,96183.17
2018-03-07T07:02:22.176Z,96189.07
2018-03-07T07:04:50.485Z,96193.06
2018-03-07T07:07:19.499Z,96193.00
2018-03-07T07:09:47.855Z,96202.24
2018-03-07T07:12:16.156Z,96212.05
2018-03-07T07:14:45.143Z,96216.49
2018-03-07T07:17:13.448Z,96225.70
2018-03-07T07:19:41.819Z,96226.33
2018-03-07T07:22:10.810Z,96216.27
2018-03-07T07:24:39.892Z,96225.94
2018-03-07T07:27:08.575Z,96219.45
2018-03-07T07:29:37.560Z,96224.84
2018-03-07T07:32:06.199Z,96229.70
2018-03-07T07:34:34.516Z,96232.62
2018-03-07T07:37:02.955Z,96238.26
2018-03-07T07:39:31.261Z,96241.94
2018-03-07T07:42:00.296Z,96240.96
2018-03-07T07:44:28.365Z,96247.10
2018-03-07T07:46:56.732Z,96255.03
2018-03-07T07:49:25.133Z,96246.09
2018-03-07T07:51:53.507Z,96253.77
2018-03-07T07:54:22.580Z,96248.83
2018-03-07T07:56:51.101Z,96249.84
2018-03-07T07:59:22.211Z,96255.30
2018-03-07T08:01:50.550Z,96255.45
2018-03-07T08:04:18.920Z,96256.67
2018-03-07T08:06:47.256Z,96255.71
2018-03-07T08:09:15.692Z,96257.56
2018-03-07T08:11:43.996Z,96269.25
2018-03-07T08:14:12.368Z,96275.00
2018-03-07T08:16:40.703Z,96276.61
2018-03-07T08:19:09.479Z,96282.37
2018-03-07T08:21:38.676Z,96277.23
2018-03-07T08:24:06.984Z,96284.28
2018-03-07T08:26:35.288Z,96284.74
2018-03-07T08:29:03.659Z,96284.38
2018-03-07T08:31:31.956Z,96283.01
2018-03-07T08:34:01.969Z,96293.09
2018-03-07T08:36:30.315Z,96285.47
2018-03-07T08:38:58.611Z,96292.79
2018-03-07T08:41:27.122Z,96288.42
2018-03-07T08:43:56.218Z,96283.44
2018-03-07T08:46:24.520Z,96292.73
2018-03-07T08:48:52.825Z,96293.22
2018-03-07T08:51:21.197Z,96293.81
2018-03-07T08:53:49.504Z,96289.14
2018-03-07T08:56:18.243Z,96298.36
2018-03-07T08:58:46.897Z,96292.86
2018-03-07T09:01:14.968Z,96296.95
2018-03-07T09:03:43.388Z,96298.32
2018-03-07T09:06:11.732Z,96292.00
2018-03-07T09:08:40.032Z,96291.53
2018-03-07T09:11:08.347Z,96295.77
2018-03-07T09:13:36.706Z,96298.81
2018-03-07T09:16:05.004Z,96302.01
2018-03-07T09:18:33.296Z,96303.34
2018-03-07T09:21:01.630Z,96306.09
2018-03-07T09:23:29.927Z,96300.55
2018-03-07T09:25:58.275Z,96301.19
2018-03-07T09:28:27.349Z,96306.89
2018-03-07T09:30:56.424Z,96303.47
2018-03-07T09:33:24.768Z,96311.33
2018-03-07T09:35:53.067Z,96315.29
2018-03-07T09:38:21.379Z,96320.39
2018-03-07T09:40:49.716Z,96320.89
2018-03-07T09:43:18.029Z,96319.64
2018-03-07T09:45:46.356Z,96324.22
2018-03-07T09:48:14.655Z,96326.33
2018-03-07T09:50:42.960Z,96338.80
2018-03-07T09:53:11.296Z,96341.81
2018-03-07T09:55:39.608Z,96338.33
2018-03-07T09:58:07.912Z,96348.93
2018-03-07T10:00:37.015Z,96345.66
2018-03-07T10:03:05.362Z,96350.59
2018-03-07T10:05:33.671Z,96352.70
2018-03-07T10:08:01.981Z,96351.66
2018-03-07T10:10:30.331Z,96358.76
2018-03-07T10:12:58.632Z,96359.91
2018-03-07T10:15:26.951Z,96362.51
2018-03-07T10:17:55.312Z,96356.57
2018-03-07T10:20:23.620Z,96358.40
2018-03-07T10:22:53.009Z,96357.16
2018-03-07T10:25:21.340Z,96358.02
2018-03-07T10:27:49.643Z,96366.88
2018-03-07T10:30:17.946Z,96373.87
2018-03-07T10:32:46.312Z,96368.21
2018-03-07T10:35:14.634Z,96371.84
2018-03-07T10:37:42.979Z,96364.81
2018-03-07T10:40:11.319Z,96371.66
2018-03-07T10:42:39.798Z,96378.44
2018-03-07T10:45:08.108Z,96372.05
2018-03-07T10:47:36.416Z,96373.13
2018-03-07T10:50:04.774Z,96373.96
2018-03-07T10:52:33.076Z,96378.47
2018-03-07T10:55:01.380Z,96371.77
2018-03-07T10:57:29.734Z,96370.36
2018-03-07T10:59:58.044Z,96370.89
2018-03-07T11:02:26.352Z,96367.09
2018-03-07T11:04:54.719Z,96369.62
2018-03-07T11:07:23.032Z,96370.48
2018-03-07T11:09:51.411Z,96369.09
2018-03-07T11:12:20.480Z,96364.97
2018-03-07T11:14:48.790Z,96381.86
2018-03-07T11:17:17.149Z,96375.38
2018-03-07T11:19:45.460Z,96377.42
2018-03-07T11:22:13.776Z,96387.67
2018-03-07T11:24:42.148Z,96379.47
2018-03-07T11:27:10.468Z,96390.30
2018-03-07T11:29:38.781Z,96386.20
2018-03-07T11:32:07.137Z,96383.00
2018-03-07T11:34:35.452Z,96381.94
2018-03-07T11:37:03.761Z,96392.47
2018-03-07T11:39:32.109Z,96394.64
2018-03-07T11:42:00.424Z,96394.31
2018-03-07T11:44:29.519Z,96395.50
2018-03-07T11:46:58.632Z,96402.11
2018-03-07T11:49:27.701Z,96398.10
2018-03-07T11:51:56.012Z,96400.31
2018-03-07T11:54:24.372Z,96408.70
2018-03-07T11:56:52.684Z,96401.64
2018-03-07T11:59:20.988Z,96404.50
2018-03-07T12:01:49.336Z,96400.77
2018-03-07T12:04:17.641Z,96403.36
2018-03-07T12:06:45.955Z,96399.67
2018-03-07T12:09:14.380Z,96401.23
2018-03-07T12:11:42.731Z,96414.72
2018-03-07T12:14:12.252Z,96402.53
2018-03-07T12:16:40.531Z,96401.30
2018-03-07T12:19:08.842Z,96403.22
2018-03-07T12:21:36.983Z,96400.30
2018-03-07T12:24:05.398Z,96399.68
2018-03-07T12:26:33.756Z,96401.62
2018-03-07T12:29:02.076Z,96401.60
2018-03-07T12:31:30.435Z,96400.06
2018-03-07T12:33:58.804Z,96396.80
2018-03-07T12:36:27.020Z,96401.67
2018-03-07T12:38:56.097Z,96392.91
2018-03-07T12:41:24.409Z,96396.31
2018-03-07T12:43:52.755Z,96402.30
2018-03-07T12:46:21.060Z,96397.06
2018-03-07T12:48:49.364Z,96389.41
2018-03-07T12:51:17.715Z,96389.44
2018-03-07T12:53:46.788Z,96392.18
2018-03-07T12:56:15.087Z,96393.61
2018-03-07T12:58:44.201Z,96382.27
2018-03-07T13:01:12.504Z,96393.95
2018-03-07T13:03:40.815Z,96391.01
2018-03-07T13:06:09.177Z,96400.91
2018-03-07T13:08:37.487Z,96398.90
2018-03-07T13:11:06.561Z,96399.47
2018-03-07T13:13:34.928Z,96401.44
2018-03-07T13:16:03.238Z,96412.83
2018-03-07T13:18:31.541Z,96404.52
2018-03-07T13:20:59.895Z,96411.46
2018-03-07T13:23:28.960Z,96418.69
2018-03-07T13:25:57.261Z,96422.09
2018-03-07T13:28:26.380Z,96430.33
2018-03-07T13:30:54.691Z,96424.08
2018-03-07T13:33:22.996Z,96428.56
2018-03-07T13:35:51.353Z,96435.12
2018-03-07T13:38:19.660Z,96433.30
2018-03-07T13:40:48.733Z,96432.70
2018-03-07T13:43:17.078Z,96427.55
2018-03-07T13:45:45.394Z,96426.99
2018-03-07T13:48:13.851Z,96428.72
2018-03-07T13:50:42.349Z,96424.41
2018-03-07T13:53:10.988Z,96421.16
2018-03-07T13:55:39.753Z,96424.89
2018-03-07T13:58:08.072Z,96417.27
2018-03-07T14:00:36.375Z,96426.63
2018-03-07T14:03:04.826Z,96422.86
2018-03-07T14:05:33.165Z,96431.48
2018-03-07T14:08:01.448Z,96431.22
2018-03-07T14:10:30.551Z,96430.79
2018-03-07T14:12:58.920Z,96433.00
2018-03-07T14:15:27.226Z,96424.59
2018-03-07T14:17:55.540Z,96424.93
2018-03-07T14:20:23.911Z,96419.77
2018-03-07T14:22:52.656Z,96421.63
2018-03-07T14:25:20.968Z,96422.22
2018-03-07T14:27:49.412Z,96416.14
2018-03-07T14:30:17.772Z,96419.75
2018-03-07T14:32:46.888Z,96428.23
2018-03-07T14:35:15.244Z,96417.47
2018-03-07T14:37:43.561Z,96422.62
2018-03-07T14:40:11.904Z,96417.31
2018-03-07T14:42:40.232Z,96418.59
2018-03-07T14:45:08.560Z,96422.83
2018-03-07T14:47:36.876Z,96420.59
2018-03-07T14:50:05.209Z,96422.52
2018-03-07T14:52:33.532Z,96424.08
2018-03-07T14:55:01.889Z,96418.00
2018-03-07T14:57:30.200Z,96424.61
2018-03-07T14:59:58.518Z,96423.53
2018-03-07T15:02:27.628Z,96416.40
2018-03-07T15:04:56.665Z,96413.73
2018-03-07T15:07:24.976Z,96417.37
2018-03-07T15:09:53.284Z,96416.57
2018-03-07T15:12:21.657Z,96408.25
2018-03-07T15:14:49.965Z,96415.77
2018-03-07T15:17:18.280Z,96418.30
2018-03-07T15:19:46.649Z,96420.47
2018-03-07T15:22:15.027Z,96416.30
2018-03-07T15:24:43.505Z,96418.81
2018-03-07T15:27:11.812Z,96417.16
2018-03-07T15:29:41.816Z,96417.38
2018-03-07T15:32:10.180Z,96418.65
2018-03-07T15:34:38.483Z,96420.02
2018-03-07T15:37:07.367Z,96428.42
2018-03-07T15:39:36.825Z,96430.50
2018-03-07T15:42:05.612Z,96428.58
2018-03-07T15:44:33.915Z,96432.70
2018-03-07T15:47:03.264Z,96437.04
2018-03-07T15:49:32.543Z,96435.98
2018-03-07T15:52:01.512Z,96444.69
2018-03-07T15:54:30.254Z,96440.02
2018-03-07T15:57:00.336Z,96439.22
2018-03-07T15:59:28.717Z,96449.02
2018-03-07T16:01:57.206Z,96443.58
2018-03-07T16:04:25.554Z,96447.83
2018-03-07T16:06:53.859Z,96455.80
2018-03-07T16:09:22.016Z,96445.38
2018-03-07T16:11:50.520Z,96455.34
2018-03-07T16:14:18.876Z,96452.08
2018-03-07T16:16:47.319Z,96452.04
2018-03-07T16:19:15.748Z,96454.76
2018-03-07T16:21:44.112Z,96458.41
2018-03-07T16:24:12.492Z,96463.73
2018-03-07T16:26:41.075Z,96472.39
2018-03-07T16:29:09.190Z,96469.65
2018-03-07T16:31:38.417Z,96475.16
2018-03-07T16:34:06.955Z,96487.60
2018-03-07T16:36:35.309Z,96492.12
2018-03-07T16:39:03.629Z,96509.73
2018-03-07T16:41:31.960Z,96509.42
2018-03-07T16:44:00.329Z,96509.36
2018-03-07T16:46:28.812Z,96515.42
2018-03-07T16:48:57.111Z,96510.67
2018-03-07T16:51:25.312Z,96520.59
2018-03-07T16:53:54.143Z,96520.05
2018-03-07T16:56:22.658Z,96522.36
2018-03-07T16:58:50.767Z,96529.66
2018-03-07T17:01:18.901Z,96523.52
2018-03-07T17:03:47.208Z,96519.81
2018-03-07T17:06:15.511Z,96523.83
2018-03-07T17:08:43.864Z,96524.42
2018-03-07T17:11:12.936Z,96522.59
2018-03-07T17:13:41.484Z,96526.56
2018-03-07T17:16:09.597Z,96526.17
2018-03-07T17:18:37.908Z,96535.51
2018-03-07T17:21:06.405Z,96538.20
2018-03-07T17:23:34.792Z,96543.98
2018-03-07T17:26:03.100Z,96548.84
2018-03-07T17:28:31.464Z,96553.65
2018-03-07T17:31:00.156Z,96558.84
2018-03-07T17:33:28.492Z,96561.53
2018-03-07T17:35:56.891Z,96564.64
2018-03-07T17:38:25.194Z,96566.00
2018-03-07T17:40:53.561Z,96571.59
2018-03-07T17:43:22.356Z,96580.50
2018-03-07T17:45:50.652Z,96586.23
2018-03-07T17:48:19.009Z,96604.08
2018-03-07T17:50:47.326Z,96599.78
2018-03-07T17:53:15.656Z,96606.91
2018-03-07T17:55:44.721Z,96604.95
2018-03-07T17:58:13.045Z,96614.93
2018-03-07T18:00:41.375Z,96614.64
2018-03-07T18:03:09.712Z,96616.45
2018-03-07T18:05:38.267Z,96619.72
2018-03-07T18:08:06.619Z,96629.30
2018-03-07T18:10:34.920Z,96638.45
2018-03-07T18:13:03.224Z,96645.81
2018-03-07T18:15:31.583Z,96648.63
2018-03-07T18:17:59.951Z,96657.08
2018-03-07T18:20:28.305Z,96662.73
2018-03-07T18:22:56.603Z,96667.71
2018-03-07T18:25:24.900Z,96659.33
2018-03-07T18:27:53.240Z,96666.31
2018-03-07T18:30:21.535Z,96664.36
2018-03-07T18:32:49.832Z,96659.42
2018-03-07T18:35:18.228Z,96658.36
2018-03-07T18:37:46.532Z,96659.52
2018-03-07T18:40:14.995Z,96661.66
2018-03-07T18:42:44.199Z,96674.91
2018-03-07T18:45:12.535Z,96677.42
2018-03-07T18:47:40.883Z,96687.14
2018-03-07T18:50:09.655Z,96688.30
2018-03-07T18:52:38.078Z,96692.14
2018-03-07T18:55:06.436Z,96692.58
2018-03-07T18:57:34.819Z,96692.22
2018-03-07T19:00:03.292Z,96695.66
2018-03-07T19:02:31.604Z,96700.84
2018-03-07T19:04:59.925Z,96702.52
2018-03-07T19:07:28.264Z,96712.25
2018-03-07T19:09:56.618Z,96708.64
2018-03-07T19:12:24.931Z,96715.67
2018-03-07T19:14:53.232Z,96714.02
2018-03-07T19:17:21.579Z,96722.97
2018-03-07T19:19:49.881Z,96725.64
2018-03-07T19:22:18.943Z,96725.09
2018-03-07T19:24:47.048Z,96725.66
2018-03-07T19:27:16.182Z,96729.23
2018-03-07T19:29:44.536Z,96732.66
2018-03-07T19:32:12.844Z,96731.70
2018-03-07T19:34:41.199Z,96734.15
2018-03-07T19:37:09.371Z,96730.12
2018-03-07T19:39:37.519Z,96732.95
2018-03-07T19:42:07.196Z,96736.63
2018-03-07T19:44:35.708Z,96739.34
2018-03-07T19:47:04.883Z,96744.19
2018-03-07T19:49:33.167Z,96752.30
2018-03-07T19:52:01.622Z,96756.28
2018-03-07T19:54:29.955Z,96753.48
2018-03-07T19:56:58.277Z,96763.48
2018-03-07T19:59:26.680Z,96767.45
2018-03-07T20:01:56.111Z,96767.45
2018-03-07T20:04:25.192Z,96764.23
2018-03-07T20:06:53.496Z,96768.45
2018-03-07T20:09:22.121Z,96776.81
2018-03-07T20:11:50.639Z,96777.56
2018-03-07T20:14:19.240Z,96777.81
2018-03-07T20:16:47.785Z,96774.38
2018-03-07T20:19:16.395Z,96771.70
2018-03-07T20:21:44.643Z,96773.27
2018-03-07T20:24:13.030Z,96781.95
2018-03-07T20:26:41.341Z,96785.09
2018-03-07T20:29:10.419Z,96787.53
2018-03-07T20:31:38.776Z,96781.03
2018-03-07T20:34:08.246Z,96773.45
2018-03-07T20:36:37.281Z,96790.23
2018-03-07T20:39:05.707Z,96799.42
2018-03-07T20:41:34.044Z,96800.77
2018-03-07T20:44:03.854Z,96809.73
2018-03-07T20:46:32.442Z,96814.89
2018-03-07T20:49:00.779Z,96818.09
2018-03-07T20:51:30.386Z,96827.23
2018-03-07T20:53:59.166Z,96830.05
2018-03-07T20:56:29.384Z,96833.25
2018-03-07T20:58:57.693Z,96847.81
2018-03-07T21:01:26.584Z,96845.79
2018-03-07T21:03:54.993Z,96848.84
2018-03-07T21:06:23.964Z,96846.22
2018-03-07T21:08:52.075Z,96855.16
2018-03-07T21:11:21.144Z,96859.84
2018-03-07T21:13:50.548Z,96861.05
2018-03-07T21:16:18.959Z,96866.09
2018-03-07T21:18:47.773Z,96858.94
2018-03-07T21:21:16.115Z,96866.05
2018-03-07T21:23:46.468Z,96872.41
2018-03-07T21:26:15.943Z,96880.38
2018-03-07T21:28:48.076Z,96874.72
2018-03-07T21:31:17.497Z,96875.03
2018-03-07T21:33:45.858Z,96877.27
2018-03-07T21:36:14.160Z,96882.20
2018-03-07T21:38:43.034Z,96887.81
2018-03-07T21:41:11.380Z,96895.44
2018-03-07T21:43:39.697Z,96894.85
2018-03-07T21:46:09.620Z,96893.88
2018-03-07T21:48:41.184Z,96888.52
2018-03-07T21:51:10.174Z,96895.61
2018-03-07T21:53:38.527Z,96895.09
2018-03-07T21:56:06.985Z,96897.95
2018-03-07T21:58:35.915Z,96899.48
2018-03-07T22:01:04.090Z,96898.41
2018-03-07T22:03:33.172Z,96907.88
2018-03-07T22:06:01.473Z,96915.93
2018-03-07T22:08:29.916Z,96925.05
2018-03-07T22:10:58.231Z,96918.58
2018-03-07T22:13:27.298Z,96923.42
2018-03-07T22:15:57.988Z,96926.12
2018-03-07T22:18:27.590Z,96931.04
2018-03-07T22:20:57.683Z,96928.33
2018-03-07T22:23:25.755Z,96933.77
2018-03-07T22:25:54.448Z,96931.48
2018-03-07T22:28:23.513Z,96931.57
2018-03-07T22:30:52.663Z,96934.58
2018-03-07T22:33:21.436Z,96939.08
2018-03-07T22:35:49.746Z,96943.28
2018-03-07T22:38:18.052Z,96948.61
2018-03-07T22:40:46.428Z,96946.97
2018-03-07T22:43:15.541Z,96958.85
2018-03-07T22:45:44.093Z,96957.41
2018-03-07T22:48:12.459Z,96956.00
2018-03-07T22:50:40.692Z,96953.20
2018-03-07T22:53:09.813Z,96958.58
2018-03-07T22:55:38.128Z,96962.50
2018-03-07T22:58:06.252Z,96966.55
2018-03-07T23:00:39.896Z,96965.91
2018-03-07T23:03:08.260Z,96967.09
2018-03-07T23:05:36.572Z,96958.45
2018-03-07T23:08:04.885Z,96959.80
2018-03-07T23:10:33.288Z,96969.80
2018-03-07T23:13:01.583Z,96974.61
2018-03-07T23:15:30.275Z,96984.98
2018-03-07T23:17:58.876Z,96992.73
2018-03-07T23:20:27.177Z,96997.84
2018-03-07T23:22:56.283Z,96996.55
2018-03-07T23:25:24.656Z,96995.77
2018-03-07T23:27:52.964Z,97009.64
2018-03-07T23:30:21.933Z,97003.00
2018-03-07T23:32:51.004Z,97007.95
2018-03-07T23:35:19.307Z,97004.59
2018-03-07T23:37:47.700Z,97009.23
2018-03-07T23:40:16.316Z,97002.11
2018-03-07T23:42:44.616Z,97010.55
2018-03-07T23:45:13.264Z,97015.81
2018-03-07T23:47:41.601Z,97025.80
2018-03-07T23:50:09.884Z,97023.64
2018-03-07T23:52:38.248Z,97031.15
2018-03-07T23:55:07.313Z,97024.55
2018-03-07T23:57:37.895Z,97036.06
